sensor_id;sensor_type;location;lat;lon;timestamp;P1;durP1;ratioP1;P2;durP2;ratioP2
66575;SDS011;53428;47.686;16.584;2023-06-10T00:01:29;9.20;;;5.40;;
66575;SDS011;53428;47.686;16.584;2023-06-10T00:06:29;7.90;;;5.07;;
66575;SDS011;53428;47.686;16.584;2023-06-10T00:11:34;9.95;;;5.65;;
66575;SDS011;53428;47.686;16.584;2023-06-10T00:16:35;9.43;;;5.60;;
66575;SDS011;53428;47.686;16.584;2023-06-10T00:21:35;7.22;;;5.35;;
66575;SDS011;53428;47.686;16.584;2023-06-10T00:26:39;7.25;;;6.00;;
66575;SDS011;53428;47.686;16.584;2023-06-10T00:31:39;7.05;;;4.93;;
66575;SDS011;53428;47.686;16.584;2023-06-10T00:36:39;9.98;;;5.53;;
66575;SDS011;53428;47.686;16.584;2023-06-10T00:41:38;10.05;;;6.78;;
66575;SDS011;53428;47.686;16.584;2023-06-10T00:46:38;9.48;;;5.85;;
66575;SDS011;53428;47.686;16.584;2023-06-10T00:51:37;12.77;;;7.22;;
66575;SDS011;53428;47.686;16.584;2023-06-10T00:56:38;10.00;;;5.65;;
66575;SDS011;53428;47.686;16.584;2023-06-10T01:01:37;9.70;;;6.47;;
66575;SDS011;53428;47.686;16.584;2023-06-10T01:06:42;7.18;;;5.75;;
66575;SDS011;53428;47.686;16.584;2023-06-10T01:11:57;9.95;;;5.75;;
66575;SDS011;53428;47.686;16.584;2023-06-10T01:17:07;12.38;;;6.75;;
66575;SDS011;53428;47.686;16.584;2023-06-10T01:22:08;8.88;;;5.72;;
66575;SDS011;53428;47.686;16.584;2023-06-10T01:27:12;8.98;;;5.63;;
66575;SDS011;53428;47.686;16.584;2023-06-10T01:32:18;9.00;;;6.03;;
66575;SDS011;53428;47.686;16.584;2023-06-10T01:37:26;7.57;;;5.15;;
66575;SDS011;53428;47.686;16.584;2023-06-10T01:42:26;13.48;;;6.03;;
66575;SDS011;53428;47.686;16.584;2023-06-10T01:47:26;7.68;;;5.97;;
66575;SDS011;53428;47.686;16.584;2023-06-10T01:52:26;13.75;;;6.47;;
66575;SDS011;53428;47.686;16.584;2023-06-10T01:57:25;14.10;;;5.70;;
66575;SDS011;53428;47.686;16.584;2023-06-10T02:02:25;9.43;;;6.97;;
66575;SDS011;53428;47.686;16.584;2023-06-10T02:07:24;7.88;;;5.47;;
66575;SDS011;53428;47.686;16.584;2023-06-10T02:12:23;8.88;;;5.40;;
66575;SDS011;53428;47.686;16.584;2023-06-10T02:17:23;8.18;;;5.60;;
66575;SDS011;53428;47.686;16.584;2023-06-10T02:22:22;6.90;;;5.70;;
66575;SDS011;53428;47.686;16.584;2023-06-10T02:27:22;7.72;;;5.05;;
66575;SDS011;53428;47.686;16.584;2023-06-10T02:32:22;6.30;;;4.90;;
66575;SDS011;53428;47.686;16.584;2023-06-10T02:37:21;9.25;;;5.10;;
66575;SDS011;53428;47.686;16.584;2023-06-10T02:42:21;7.65;;;5.55;;
66575;SDS011;53428;47.686;16.584;2023-06-10T02:47:20;7.30;;;5.07;;
66575;SDS011;53428;47.686;16.584;2023-06-10T02:52:19;12.82;;;5.20;;
66575;SDS011;53428;47.686;16.584;2023-06-10T02:57:19;9.52;;;5.18;;
66575;SDS011;53428;47.686;16.584;2023-06-10T03:02:18;9.73;;;4.75;;
66575;SDS011;53428;47.686;16.584;2023-06-10T03:07:17;9.60;;;4.50;;
66575;SDS011;53428;47.686;16.584;2023-06-10T03:12:17;9.77;;;4.90;;
66575;SDS011;53428;47.686;16.584;2023-06-10T03:17:17;8.32;;;5.80;;
66575;SDS011;53428;47.686;16.584;2023-06-10T03:22:16;7.60;;;5.85;;
66575;SDS011;53428;47.686;16.584;2023-06-10T03:27:16;12.93;;;5.30;;
66575;SDS011;53428;47.686;16.584;2023-06-10T03:32:15;9.02;;;5.57;;
66575;SDS011;53428;47.686;16.584;2023-06-10T03:37:15;10.07;;;4.47;;
66575;SDS011;53428;47.686;16.584;2023-06-10T03:42:14;7.40;;;5.35;;
66575;SDS011;53428;47.686;16.584;2023-06-10T03:47:13;6.38;;;5.57;;
66575;SDS011;53428;47.686;16.584;2023-06-10T03:52:13;7.90;;;5.53;;
66575;SDS011;53428;47.686;16.584;2023-06-10T03:57:12;10.00;;;5.68;;
66575;SDS011;53428;47.686;16.584;2023-06-10T04:02:12;6.53;;;5.63;;
66575;SDS011;53428;47.686;16.584;2023-06-10T04:07:11;10.35;;;5.75;;
66575;SDS011;53428;47.686;16.584;2023-06-10T04:12:11;6.75;;;4.95;;
66575;SDS011;53428;47.686;16.584;2023-06-10T04:17:10;9.20;;;5.63;;
66575;SDS011;53428;47.686;16.584;2023-06-10T04:22:10;9.23;;;5.10;;
66575;SDS011;53428;47.686;16.584;2023-06-10T04:27:09;9.90;;;5.70;;
66575;SDS011;53428;47.686;16.584;2023-06-10T04:32:09;8.80;;;5.90;;
66575;SDS011;53428;47.686;16.584;2023-06-10T04:37:08;9.32;;;6.00;;
66575;SDS011;53428;47.686;16.584;2023-06-10T04:42:08;8.00;;;6.20;;
66575;SDS011;53428;47.686;16.584;2023-06-10T04:47:07;8.15;;;5.97;;
66575;SDS011;53428;47.686;16.584;2023-06-10T04:52:07;13.40;;;6.18;;
66575;SDS011;53428;47.686;16.584;2023-06-10T04:57:06;9.93;;;7.40;;
66575;SDS011;53428;47.686;16.584;2023-06-10T05:02:06;12.90;;;7.22;;
66575;SDS011;53428;47.686;16.584;2023-06-10T05:07:06;12.52;;;6.72;;
66575;SDS011;53428;47.686;16.584;2023-06-10T05:12:05;12.65;;;6.63;;
66575;SDS011;53428;47.686;16.584;2023-06-10T05:17:05;11.05;;;6.82;;
66575;SDS011;53428;47.686;16.584;2023-06-10T05:22:05;11.60;;;7.57;;
66575;SDS011;53428;47.686;16.584;2023-06-10T05:27:04;14.57;;;8.15;;
66575;SDS011;53428;47.686;16.584;2023-06-10T05:32:05;12.55;;;7.80;;
66575;SDS011;53428;47.686;16.584;2023-06-10T05:37:05;13.20;;;8.77;;
66575;SDS011;53428;47.686;16.584;2023-06-10T05:42:05;13.18;;;8.82;;
66575;SDS011;53428;47.686;16.584;2023-06-10T05:47:05;13.98;;;10.63;;
66575;SDS011;53428;47.686;16.584;2023-06-10T05:52:05;16.35;;;9.18;;
66575;SDS011;53428;47.686;16.584;2023-06-10T05:57:04;15.57;;;9.77;;
66575;SDS011;53428;47.686;16.584;2023-06-10T06:02:05;16.35;;;11.15;;
66575;SDS011;53428;47.686;16.584;2023-06-10T06:07:04;16.23;;;10.98;;
66575;SDS011;53428;47.686;16.584;2023-06-10T06:12:04;19.67;;;11.57;;
66575;SDS011;53428;47.686;16.584;2023-06-10T06:17:06;18.48;;;12.45;;
66575;SDS011;53428;47.686;16.584;2023-06-10T06:22:06;23.60;;;13.15;;
66575;SDS011;53428;47.686;16.584;2023-06-10T06:27:05;21.63;;;13.70;;
66575;SDS011;53428;47.686;16.584;2023-06-10T06:32:05;17.52;;;12.90;;
66575;SDS011;53428;47.686;16.584;2023-06-10T06:37:05;16.77;;;12.23;;
66575;SDS011;53428;47.686;16.584;2023-06-10T06:42:04;15.43;;;11.18;;
66575;SDS011;53428;47.686;16.584;2023-06-10T06:47:04;16.23;;;12.27;;
66575;SDS011;53428;47.686;16.584;2023-06-10T06:52:04;19.98;;;10.98;;
66575;SDS011;53428;47.686;16.584;2023-06-10T06:57:04;17.92;;;12.27;;
66575;SDS011;53428;47.686;16.584;2023-06-10T07:02:04;16.83;;;12.13;;
66575;SDS011;53428;47.686;16.584;2023-06-10T07:07:07;19.25;;;13.98;;
66575;SDS011;53428;47.686;16.584;2023-06-10T07:12:07;15.77;;;10.93;;
66575;SDS011;53428;47.686;16.584;2023-06-10T07:17:07;15.70;;;10.50;;
66575;SDS011;53428;47.686;16.584;2023-06-10T07:22:07;16.00;;;11.07;;
66575;SDS011;53428;47.686;16.584;2023-06-10T07:27:07;15.45;;;10.88;;
66575;SDS011;53428;47.686;16.584;2023-06-10T07:32:07;15.32;;;9.57;;
66575;SDS011;53428;47.686;16.584;2023-06-10T07:37:07;14.48;;;9.35;;
66575;SDS011;53428;47.686;16.584;2023-06-10T07:42:07;11.98;;;9.10;;
66575;SDS011;53428;47.686;16.584;2023-06-10T07:47:06;12.30;;;9.60;;
66575;SDS011;53428;47.686;16.584;2023-06-10T07:52:06;13.93;;;9.93;;
66575;SDS011;53428;47.686;16.584;2023-06-10T07:57:06;13.32;;;10.25;;
66575;SDS011;53428;47.686;16.584;2023-06-10T08:02:06;17.95;;;11.95;;
66575;SDS011;53428;47.686;16.584;2023-06-10T08:07:05;15.48;;;11.25;;
66575;SDS011;53428;47.686;16.584;2023-06-10T08:12:05;16.30;;;11.90;;
66575;SDS011;53428;47.686;16.584;2023-06-10T08:17:05;15.27;;;11.88;;
66575;SDS011;53428;47.686;16.584;2023-06-10T08:22:05;20.95;;;13.20;;
66575;SDS011;53428;47.686;16.584;2023-06-10T08:27:04;14.00;;;11.38;;
66575;SDS011;53428;47.686;16.584;2023-06-10T08:32:04;18.73;;;13.82;;
66575;SDS011;53428;47.686;16.584;2023-06-10T08:37:04;18.65;;;12.80;;
66575;SDS011;53428;47.686;16.584;2023-06-10T08:47:24;16.20;;;11.65;;
66575;SDS011;53428;47.686;16.584;2023-06-10T08:52:24;16.70;;;11.27;;
66575;SDS011;53428;47.686;16.584;2023-06-10T08:57:28;18.42;;;12.15;;
66575;SDS011;53428;47.686;16.584;2023-06-10T09:02:29;15.25;;;11.57;;
66575;SDS011;53428;47.686;16.584;2023-06-10T09:07:30;21.00;;;12.88;;
66575;SDS011;53428;47.686;16.584;2023-06-10T09:12:35;21.40;;;12.52;;
66575;SDS011;53428;47.686;16.584;2023-06-10T09:17:37;18.02;;;12.38;;
66575;SDS011;53428;47.686;16.584;2023-06-10T09:22:37;18.17;;;12.13;;
66575;SDS011;53428;47.686;16.584;2023-06-10T09:27:50;20.05;;;12.68;;
66575;SDS011;53428;47.686;16.584;2023-06-10T09:32:56;18.05;;;11.50;;
66575;SDS011;53428;47.686;16.584;2023-06-10T09:37:58;16.27;;;11.75;;
66575;SDS011;53428;47.686;16.584;2023-06-10T09:42:59;16.88;;;12.75;;
66575;SDS011;53428;47.686;16.584;2023-06-10T09:47:59;22.60;;;12.77;;
66575;SDS011;53428;47.686;16.584;2023-06-10T09:52:59;21.55;;;12.57;;
66575;SDS011;53428;47.686;16.584;2023-06-10T09:57:59;20.00;;;12.60;;
66575;SDS011;53428;47.686;16.584;2023-06-10T10:02:58;17.40;;;12.60;;
66575;SDS011;53428;47.686;16.584;2023-06-10T10:07:58;16.25;;;11.63;;
66575;SDS011;53428;47.686;16.584;2023-06-10T10:12:57;16.25;;;11.40;;
66575;SDS011;53428;47.686;16.584;2023-06-10T10:18:05;19.30;;;14.38;;
66575;SDS011;53428;47.686;16.584;2023-06-10T10:23:07;16.67;;;12.27;;
66575;SDS011;53428;47.686;16.584;2023-06-10T10:33:12;17.48;;;12.88;;
66575;SDS011;53428;47.686;16.584;2023-06-10T10:38:15;20.73;;;12.00;;
66575;SDS011;53428;47.686;16.584;2023-06-10T10:43:15;19.25;;;13.73;;
66575;SDS011;53428;47.686;16.584;2023-06-10T10:48:15;17.10;;;12.25;;
66575;SDS011;53428;47.686;16.584;2023-06-10T10:53:15;17.33;;;12.02;;
66575;SDS011;53428;47.686;16.584;2023-06-10T10:58:23;14.60;;;10.65;;
66575;SDS011;53428;47.686;16.584;2023-06-10T11:03:29;21.05;;;12.68;;
66575;SDS011;53428;47.686;16.584;2023-06-10T11:13:31;17.23;;;11.73;;
66575;SDS011;53428;47.686;16.584;2023-06-10T11:18:39;20.85;;;9.98;;
66575;SDS011;53428;47.686;16.584;2023-06-10T11:23:40;11.27;;;8.80;;
66575;SDS011;53428;47.686;16.584;2023-06-10T11:28:41;11.73;;;9.20;;
66575;SDS011;53428;47.686;16.584;2023-06-10T11:34:04;11.13;;;8.77;;
66575;SDS011;53428;47.686;16.584;2023-06-10T11:39:05;12.55;;;9.27;;
66575;SDS011;53428;47.686;16.584;2023-06-10T11:44:09;10.38;;;7.75;;
66575;SDS011;53428;47.686;16.584;2023-06-10T11:49:12;13.50;;;7.25;;
66575;SDS011;53428;47.686;16.584;2023-06-10T11:54:11;9.35;;;7.20;;
66575;SDS011;53428;47.686;16.584;2023-06-10T11:59:10;10.30;;;7.03;;
66575;SDS011;53428;47.686;16.584;2023-06-10T12:04:14;8.60;;;7.15;;
66575;SDS011;53428;47.686;16.584;2023-06-10T12:09:21;11.95;;;7.72;;
66575;SDS011;53428;47.686;16.584;2023-06-10T12:19:55;27.40;;;7.13;;
66575;SDS011;53428;47.686;16.584;2023-06-10T12:24:58;7.93;;;6.63;;
66575;SDS011;53428;47.686;16.584;2023-06-10T12:30:03;11.50;;;7.05;;
66575;SDS011;53428;47.686;16.584;2023-06-10T12:35:04;9.40;;;7.32;;
66575;SDS011;53428;47.686;16.584;2023-06-10T12:45:10;6.82;;;6.03;;
66575;SDS011;53428;47.686;16.584;2023-06-10T12:50:10;9.35;;;7.15;;
66575;SDS011;53428;47.686;16.584;2023-06-10T12:55:10;10.43;;;6.05;;
66575;SDS011;53428;47.686;16.584;2023-06-10T13:00:10;9.90;;;6.38;;
66575;SDS011;53428;47.686;16.584;2023-06-10T13:05:12;8.20;;;6.93;;
66575;SDS011;53428;47.686;16.584;2023-06-10T13:10:15;10.75;;;7.80;;
66575;SDS011;53428;47.686;16.584;2023-06-10T13:15:15;11.25;;;7.45;;
66575;SDS011;53428;47.686;16.584;2023-06-10T13:20:15;8.27;;;6.85;;
66575;SDS011;53428;47.686;16.584;2023-06-10T13:25:15;9.48;;;6.30;;
66575;SDS011;53428;47.686;16.584;2023-06-10T13:30:14;8.30;;;7.03;;
66575;SDS011;53428;47.686;16.584;2023-06-10T13:35:13;7.15;;;6.35;;
66575;SDS011;53428;47.686;16.584;2023-06-10T13:40:13;8.55;;;6.72;;
66575;SDS011;53428;47.686;16.584;2023-06-10T13:45:12;10.45;;;6.97;;
66575;SDS011;53428;47.686;16.584;2023-06-10T13:50:12;8.20;;;5.97;;
66575;SDS011;53428;47.686;16.584;2023-06-10T13:55:12;7.38;;;5.55;;
66575;SDS011;53428;47.686;16.584;2023-06-10T14:00:11;7.45;;;5.70;;
66575;SDS011;53428;47.686;16.584;2023-06-10T14:05:10;9.82;;;6.70;;
66575;SDS011;53428;47.686;16.584;2023-06-10T14:10:10;10.55;;;7.28;;
66575;SDS011;53428;47.686;16.584;2023-06-10T14:15:09;11.40;;;7.40;;
66575;SDS011;53428;47.686;16.584;2023-06-10T14:20:09;11.13;;;7.88;;
66575;SDS011;53428;47.686;16.584;2023-06-10T14:25:09;9.88;;;7.55;;
66575;SDS011;53428;47.686;16.584;2023-06-10T14:30:13;8.43;;;6.65;;
66575;SDS011;53428;47.686;16.584;2023-06-10T14:35:13;8.88;;;6.13;;
66575;SDS011;53428;47.686;16.584;2023-06-10T14:40:12;8.80;;;6.63;;
66575;SDS011;53428;47.686;16.584;2023-06-10T14:45:11;7.47;;;5.38;;
66575;SDS011;53428;47.686;16.584;2023-06-10T14:50:11;7.38;;;5.13;;
66575;SDS011;53428;47.686;16.584;2023-06-10T14:55:10;6.60;;;5.65;;
66575;SDS011;53428;47.686;16.584;2023-06-10T15:00:09;9.48;;;6.68;;
66575;SDS011;53428;47.686;16.584;2023-06-10T15:05:09;7.32;;;6.25;;
66575;SDS011;53428;47.686;16.584;2023-06-10T15:10:09;8.93;;;6.30;;
66575;SDS011;53428;47.686;16.584;2023-06-10T15:15:09;7.07;;;6.15;;
66575;SDS011;53428;47.686;16.584;2023-06-10T15:20:09;6.20;;;4.78;;
66575;SDS011;53428;47.686;16.584;2023-06-10T15:25:08;7.32;;;5.88;;
66575;SDS011;53428;47.686;16.584;2023-06-10T15:30:08;6.70;;;5.68;;
66575;SDS011;53428;47.686;16.584;2023-06-10T15:35:08;8.48;;;5.82;;
66575;SDS011;53428;47.686;16.584;2023-06-10T15:40:08;7.97;;;5.60;;
66575;SDS011;53428;47.686;16.584;2023-06-10T15:45:07;6.10;;;5.00;;
66575;SDS011;53428;47.686;16.584;2023-06-10T15:50:07;6.32;;;4.85;;
66575;SDS011;53428;47.686;16.584;2023-06-10T15:55:08;6.40;;;5.50;;
66575;SDS011;53428;47.686;16.584;2023-06-10T16:00:07;6.47;;;4.47;;
66575;SDS011;53428;47.686;16.584;2023-06-10T16:05:07;4.82;;;3.63;;
66575;SDS011;53428;47.686;16.584;2023-06-10T16:10:07;6.38;;;4.68;;
66575;SDS011;53428;47.686;16.584;2023-06-10T16:15:06;8.52;;;4.72;;
66575;SDS011;53428;47.686;16.584;2023-06-10T16:20:06;4.82;;;4.00;;
66575;SDS011;53428;47.686;16.584;2023-06-10T16:25:07;6.97;;;3.90;;
66575;SDS011;53428;47.686;16.584;2023-06-10T16:30:06;5.30;;;4.30;;
66575;SDS011;53428;47.686;16.584;2023-06-10T16:35:06;5.05;;;3.85;;
66575;SDS011;53428;47.686;16.584;2023-06-10T16:40:06;5.07;;;4.28;;
66575;SDS011;53428;47.686;16.584;2023-06-10T16:45:06;7.93;;;5.30;;
66575;SDS011;53428;47.686;16.584;2023-06-10T16:50:06;7.40;;;4.95;;
66575;SDS011;53428;47.686;16.584;2023-06-10T16:55:06;5.75;;;5.07;;
66575;SDS011;53428;47.686;16.584;2023-06-10T17:00:05;10.85;;;5.95;;
66575;SDS011;53428;47.686;16.584;2023-06-10T17:05:05;7.13;;;5.88;;
66575;SDS011;53428;47.686;16.584;2023-06-10T17:10:05;10.77;;;6.07;;
66575;SDS011;53428;47.686;16.584;2023-06-10T17:15:05;7.88;;;5.93;;
66575;SDS011;53428;47.686;16.584;2023-06-10T17:20:05;9.98;;;7.47;;
66575;SDS011;53428;47.686;16.584;2023-06-10T17:25:06;8.73;;;6.40;;
66575;SDS011;53428;47.686;16.584;2023-06-10T17:30:05;12.13;;;9.73;;
66575;SDS011;53428;47.686;16.584;2023-06-10T17:35:06;12.07;;;8.18;;
66575;SDS011;53428;47.686;16.584;2023-06-10T17:40:06;12.15;;;8.52;;
66575;SDS011;53428;47.686;16.584;2023-06-10T17:45:08;14.40;;;9.48;;
66575;SDS011;53428;47.686;16.584;2023-06-10T17:50:08;12.45;;;8.75;;
66575;SDS011;53428;47.686;16.584;2023-06-10T17:55:08;15.15;;;10.10;;
66575;SDS011;53428;47.686;16.584;2023-06-10T18:00:07;11.23;;;8.77;;
66575;SDS011;53428;47.686;16.584;2023-06-10T18:05:07;18.13;;;8.52;;
66575;SDS011;53428;47.686;16.584;2023-06-10T18:10:07;12.13;;;8.35;;
66575;SDS011;53428;47.686;16.584;2023-06-10T18:15:07;9.32;;;7.45;;
66575;SDS011;53428;47.686;16.584;2023-06-10T18:20:07;10.70;;;6.68;;
66575;SDS011;53428;47.686;16.584;2023-06-10T18:25:07;12.30;;;6.78;;
66575;SDS011;53428;47.686;16.584;2023-06-10T18:30:06;9.93;;;6.82;;
66575;SDS011;53428;47.686;16.584;2023-06-10T18:35:06;12.98;;;6.85;;
66575;SDS011;53428;47.686;16.584;2023-06-10T18:40:06;18.52;;;8.95;;
66575;SDS011;53428;47.686;16.584;2023-06-10T18:45:06;14.13;;;8.45;;
66575;SDS011;53428;47.686;16.584;2023-06-10T18:50:07;14.52;;;9.88;;
66575;SDS011;53428;47.686;16.584;2023-06-10T18:55:07;16.95;;;9.30;;
66575;SDS011;53428;47.686;16.584;2023-06-10T19:00:07;16.45;;;9.13;;
66575;SDS011;53428;47.686;16.584;2023-06-10T19:05:07;19.27;;;10.20;;
66575;SDS011;53428;47.686;16.584;2023-06-10T19:10:11;17.95;;;9.60;;
66575;SDS011;53428;47.686;16.584;2023-06-10T19:15:10;17.92;;;10.73;;
66575;SDS011;53428;47.686;16.584;2023-06-10T19:20:10;19.45;;;11.70;;
66575;SDS011;53428;47.686;16.584;2023-06-10T19:25:11;17.70;;;10.50;;
66575;SDS011;53428;47.686;16.584;2023-06-10T19:30:11;15.85;;;10.20;;
66575;SDS011;53428;47.686;16.584;2023-06-10T19:35:11;15.07;;;10.57;;
66575;SDS011;53428;47.686;16.584;2023-06-10T19:40:11;23.88;;;10.18;;
66575;SDS011;53428;47.686;16.584;2023-06-10T19:45:10;22.20;;;10.98;;
66575;SDS011;53428;47.686;16.584;2023-06-10T19:50:10;18.10;;;10.60;;
66575;SDS011;53428;47.686;16.584;2023-06-10T19:55:09;15.68;;;12.00;;
66575;SDS011;53428;47.686;16.584;2023-06-10T20:00:09;22.65;;;12.32;;
66575;SDS011;53428;47.686;16.584;2023-06-10T20:05:09;19.00;;;10.73;;
66575;SDS011;53428;47.686;16.584;2023-06-10T20:10:08;19.52;;;11.35;;
66575;SDS011;53428;47.686;16.584;2023-06-10T20:15:08;16.92;;;10.85;;
66575;SDS011;53428;47.686;16.584;2023-06-10T20:20:08;15.13;;;10.57;;
66575;SDS011;53428;47.686;16.584;2023-06-10T20:25:08;13.77;;;9.75;;
66575;SDS011;53428;47.686;16.584;2023-06-10T20:30:10;15.38;;;10.10;;
66575;SDS011;53428;47.686;16.584;2023-06-10T20:35:11;12.27;;;9.38;;
66575;SDS011;53428;47.686;16.584;2023-06-10T20:40:11;13.68;;;9.05;;
66575;SDS011;53428;47.686;16.584;2023-06-10T20:45:12;13.07;;;9.20;;
66575;SDS011;53428;47.686;16.584;2023-06-10T20:50:11;15.43;;;8.48;;
66575;SDS011;53428;47.686;16.584;2023-06-10T20:55:11;15.55;;;10.15;;
66575;SDS011;53428;47.686;16.584;2023-06-10T21:00:10;16.98;;;9.20;;
66575;SDS011;53428;47.686;16.584;2023-06-10T21:05:10;14.55;;;9.48;;
66575;SDS011;53428;47.686;16.584;2023-06-10T21:10:10;15.40;;;10.23;;
66575;SDS011;53428;47.686;16.584;2023-06-10T21:15:10;12.27;;;9.32;;
66575;SDS011;53428;47.686;16.584;2023-06-10T21:20:09;14.77;;;10.00;;
66575;SDS011;53428;47.686;16.584;2023-06-10T21:25:11;15.15;;;10.07;;
66575;SDS011;53428;47.686;16.584;2023-06-10T21:30:10;13.57;;;9.27;;
66575;SDS011;53428;47.686;16.584;2023-06-10T21:35:09;13.40;;;9.75;;
66575;SDS011;53428;47.686;16.584;2023-06-10T21:40:09;17.33;;;11.05;;
66575;SDS011;53428;47.686;16.584;2023-06-10T21:45:09;17.10;;;11.10;;
66575;SDS011;53428;47.686;16.584;2023-06-10T21:50:09;15.70;;;9.52;;
66575;SDS011;53428;47.686;16.584;2023-06-10T21:55:09;18.17;;;11.40;;
66575;SDS011;53428;47.686;16.584;2023-06-10T22:00:09;15.23;;;10.07;;
66575;SDS011;53428;47.686;16.584;2023-06-10T22:05:11;13.20;;;10.60;;
66575;SDS011;53428;47.686;16.584;2023-06-10T22:10:10;14.32;;;11.00;;
66575;SDS011;53428;47.686;16.584;2023-06-10T22:15:10;15.65;;;11.00;;
66575;SDS011;53428;47.686;16.584;2023-06-10T22:20:10;15.27;;;12.23;;
66575;SDS011;53428;47.686;16.584;2023-06-10T22:25:10;14.93;;;11.27;;
66575;SDS011;53428;47.686;16.584;2023-06-10T22:30:10;14.18;;;11.02;;
66575;SDS011;53428;47.686;16.584;2023-06-10T22:35:10;15.05;;;10.68;;
66575;SDS011;53428;47.686;16.584;2023-06-10T22:40:10;16.08;;;10.95;;
66575;SDS011;53428;47.686;16.584;2023-06-10T22:45:09;14.80;;;10.75;;
66575;SDS011;53428;47.686;16.584;2023-06-10T22:50:08;14.70;;;10.65;;
66575;SDS011;53428;47.686;16.584;2023-06-10T22:55:08;17.55;;;10.20;;
66575;SDS011;53428;47.686;16.584;2023-06-10T23:00:08;16.95;;;10.82;;
66575;SDS011;53428;47.686;16.584;2023-06-10T23:05:08;19.40;;;12.13;;
66575;SDS011;53428;47.686;16.584;2023-06-10T23:10:09;16.40;;;11.10;;
66575;SDS011;53428;47.686;16.584;2023-06-10T23:15:08;14.75;;;11.43;;
66575;SDS011;53428;47.686;16.584;2023-06-10T23:20:08;16.63;;;11.30;;
66575;SDS011;53428;47.686;16.584;2023-06-10T23:25:09;16.35;;;10.68;;
66575;SDS011;53428;47.686;16.584;2023-06-10T23:30:09;13.68;;;10.88;;
66575;SDS011;53428;47.686;16.584;2023-06-10T23:35:09;16.90;;;9.80;;
66575;SDS011;53428;47.686;16.584;2023-06-10T23:40:09;14.82;;;10.52;;
66575;SDS011;53428;47.686;16.584;2023-06-10T23:45:09;15.48;;;10.82;;
66575;SDS011;53428;47.686;16.584;2023-06-10T23:50:09;17.50;;;10.52;;
66575;SDS011;53428;47.686;16.584;2023-06-10T23:55:09;12.07;;;10.25;;
